KVLD

Valdosta Regional Airport

Valdosta, Georgia, USA
KVLD 201738Z 2018/2118 07009G18KT P6SM SCT060 FM210000 07006KT P6SM OVC050 FM211200 06008KT P6SM BKN025
Issued Valid From Valid To
Apr-20 @ 17:38 UTC
(52 minutes ago)
Apr-20 @ 18:00 UTC
(30 minutes ago)
Apr-21 @ 18:00 UTC
(in 24 hours)
Apr-20 @ 18:00 to Apr-21 @ 00:00
KVLD 201738Z 2018/2118 07009G18KT P6SM SCT060
Wind Visibility Clouds
70° at 9 knots
 Gusting to 18 knots
Greater than 6 miles
  • Scattered at 6,000' AGL
From Apr-21 @ 00:00 to Apr-21 @ 12:00
FM210000 07006KT P6SM OVC050
Wind Visibility Clouds
70° at 6 knots Greater than 6 miles
  • Overcast at 5,000' AGL
From Apr-21 @ 12:00 to Apr-21 @ 18:00
FM211200 06008KT P6SM BKN025
Wind Visibility Clouds
60° at 8 knots Greater than 6 miles
  • Broken at 2,500' AGL
KVLD 201738Z 2018/2118 07009G18KT P6SM SCT060 FM210000 07006KT P6SM OVC050 FM211200 06008KT P6SM BKN025
Issued Apr-20 @ 17:38 UTC
(52 minutes ago)
Valid From Apr-20 @ 18:00 UTC
(30 minutes ago)
Valid To Apr-21 @ 18:00 UTC
(in 24 hours)
Apr-20 @ 18:00 - Apr-21 @ 00:00
Wind Visibility
70° at 9 knots
 Gusting to 18 knots
Greater than 6 miles
Clouds
  • Scattered at 6,000' AGL
From Apr-21 @ 00:00 - Apr-21 @ 12:00
Wind Visibility
70° at 6 knots Greater than 6 miles
Clouds
  • Overcast at 5,000' AGL
From Apr-21 @ 12:00 - Apr-21 @ 18:00
Wind Visibility
60° at 8 knots Greater than 6 miles
Clouds
  • Broken at 2,500' AGL